sensor_id;sensor_type;location;lat;lon;timestamp;pressure;altitude;pressure_sealevel;temperature;humidity
49194;BME280;35029;50.804;12.866;2023-05-02T00:01:55;97578.19;;;11.43;100.00
49194;BME280;35029;50.804;12.866;2023-05-02T00:04:21;97557.78;;;11.24;100.00
49194;BME280;35029;50.804;12.866;2023-05-02T00:06:46;97555.34;;;11.22;100.00
49194;BME280;35029;50.804;12.866;2023-05-02T00:09:12;97578.19;;;11.43;100.00
49194;BME280;35029;50.804;12.866;2023-05-02T00:11:38;97564.69;;;11.38;100.00
49194;BME280;35029;50.804;12.866;2023-05-02T00:14:04;97551.63;;;11.30;100.00
49194;BME280;35029;50.804;12.866;2023-05-02T00:16:30;97575.31;;;11.38;100.00
49194;BME280;35029;50.804;12.866;2023-05-02T00:18:55;97580.81;;;11.30;100.00
49194;BME280;35029;50.804;12.866;2023-05-02T00:21:21;97588.19;;;11.35;100.00
49194;BME280;35029;50.804;12.866;2023-05-02T00:23:46;97566.16;;;11.14;100.00
49194;BME280;35029;50.804;12.866;2023-05-02T00:26:12;97572.06;;;11.23;100.00
49194;BME280;35029;50.804;12.866;2023-05-02T00:28:41;97585.75;;;11.26;100.00
49194;BME280;35029;50.804;12.866;2023-05-02T00:31:06;97570.22;;;11.10;100.00
49194;BME280;35029;50.804;12.866;2023-05-02T00:33:32;97578.78;;;11.25;100.00
49194;BME280;35029;50.804;12.866;2023-05-02T00:35:57;97566.53;;;11.11;100.00
49194;BME280;35029;50.804;12.866;2023-05-02T00:38:23;97586.75;;;11.19;100.00
49194;BME280;35029;50.804;12.866;2023-05-02T00:40:49;97584.72;;;11.14;100.00
49194;BME280;35029;50.804;12.866;2023-05-02T00:43:18;97580.63;;;11.18;100.00
49194;BME280;35029;50.804;12.866;2023-05-02T00:45:44;97558.38;;;11.06;100.00
49194;BME280;35029;50.804;12.866;2023-05-02T00:48:11;97561.03;;;11.06;100.00
49194;BME280;35029;50.804;12.866;2023-05-02T00:50:39;97571.66;;;11.06;100.00
49194;BME280;35029;50.804;12.866;2023-05-02T00:53:05;97568.38;;;11.04;100.00
49194;BME280;35029;50.804;12.866;2023-05-02T00:55:32;97569.38;;;11.03;100.00
49194;BME280;35029;50.804;12.866;2023-05-02T00:58:03;97562.06;;;11.05;100.00
49194;BME280;35029;50.804;12.866;2023-05-02T01:01:02;97576.53;;;11.09;100.00
49194;BME280;35029;50.804;12.866;2023-05-02T01:03:42;97581.63;;;11.04;100.00
49194;BME280;35029;50.804;12.866;2023-05-02T01:06:12;97579.38;;;11.01;100.00
49194;BME280;35029;50.804;12.866;2023-05-02T01:08:51;97565.09;;;10.88;100.00
49194;BME280;35029;50.804;12.866;2023-05-02T01:11:36;97579.16;;;10.95;100.00
49194;BME280;35029;50.804;12.866;2023-05-02T01:14:04;97566.50;;;10.84;100.00
49194;BME280;35029;50.804;12.866;2023-05-02T01:16:37;97556.88;;;10.70;100.00
49194;BME280;35029;50.804;12.866;2023-05-02T01:19:11;97565.25;;;10.67;100.00
49194;BME280;35029;50.804;12.866;2023-05-02T01:21:39;97576.44;;;10.62;100.00
49194;BME280;35029;50.804;12.866;2023-05-02T01:24:11;97578.50;;;10.67;100.00
49194;BME280;35029;50.804;12.866;2023-05-02T01:26:51;97579.91;;;10.62;100.00
49194;BME280;35029;50.804;12.866;2023-05-02T01:29:21;97583.97;;;10.58;100.00
49194;BME280;35029;50.804;12.866;2023-05-02T01:31:49;97580.06;;;10.47;100.00
49194;BME280;35029;50.804;12.866;2023-05-02T01:34:17;97578.00;;;10.43;100.00
49194;BME280;35029;50.804;12.866;2023-05-02T01:36:45;97589.19;;;10.38;100.00
49194;BME280;35029;50.804;12.866;2023-05-02T01:39:16;97579.31;;;10.19;100.00
49194;BME280;35029;50.804;12.866;2023-05-02T01:41:44;97589.06;;;10.18;100.00
49194;BME280;35029;50.804;12.866;2023-05-02T01:44:12;97592.28;;;10.07;100.00
49194;BME280;35029;50.804;12.866;2023-05-02T01:46:40;97599.47;;;10.13;100.00
49194;BME280;35029;50.804;12.866;2023-05-02T01:49:08;97590.03;;;10.04;100.00
49194;BME280;35029;50.804;12.866;2023-05-02T01:51:41;97601.69;;;10.09;100.00
49194;BME280;35029;50.804;12.866;2023-05-02T01:54:12;97598.84;;;10.11;100.00
49194;BME280;35029;50.804;12.866;2023-05-02T01:56:40;97575.91;;;9.90;100.00
49194;BME280;35029;50.804;12.866;2023-05-02T01:59:10;97597.34;;;10.02;100.00
49194;BME280;35029;50.804;12.866;2023-05-02T02:01:38;97596.94;;;10.05;100.00
49194;BME280;35029;50.804;12.866;2023-05-02T02:04:06;97601.25;;;10.06;100.00
49194;BME280;35029;50.804;12.866;2023-05-02T02:06:33;97614.72;;;10.11;100.00
49194;BME280;35029;50.804;12.866;2023-05-02T02:09:00;97615.06;;;10.01;100.00
49194;BME280;35029;50.804;12.866;2023-05-02T02:11:36;97601.41;;;9.97;100.00
49194;BME280;35029;50.804;12.866;2023-05-02T02:14:11;97592.44;;;9.98;100.00
49194;BME280;35029;50.804;12.866;2023-05-02T02:16:40;97621.22;;;10.08;100.00
49194;BME280;35029;50.804;12.866;2023-05-02T02:19:09;97618.78;;;10.07;100.00
49194;BME280;35029;50.804;12.866;2023-05-02T02:21:38;97618.13;;;10.05;100.00
49194;BME280;35029;50.804;12.866;2023-05-02T02:24:06;97627.72;;;10.06;100.00
49194;BME280;35029;50.804;12.866;2023-05-02T02:26:33;97617.28;;;9.97;100.00
49194;BME280;35029;50.804;12.866;2023-05-02T02:28:59;97629.75;;;10.04;100.00
49194;BME280;35029;50.804;12.866;2023-05-02T02:31:32;97627.47;;;10.01;100.00
49194;BME280;35029;50.804;12.866;2023-05-02T02:33:59;97643.38;;;10.01;100.00
49194;BME280;35029;50.804;12.866;2023-05-02T02:39:24;97653.97;;;10.01;100.00
49194;BME280;35029;50.804;12.866;2023-05-02T02:42:14;97656.63;;;10.01;100.00
49194;BME280;35029;50.804;12.866;2023-05-02T02:47:30;97661.09;;;10.00;100.00
49194;BME280;35029;50.804;12.866;2023-05-02T02:53:04;97671.97;;;10.12;100.00
49194;BME280;35029;50.804;12.866;2023-05-02T02:55:38;97668.50;;;10.11;100.00
49194;BME280;35029;50.804;12.866;2023-05-02T02:58:18;97651.09;;;9.95;100.00
49194;BME280;35029;50.804;12.866;2023-05-02T03:00:45;97674.78;;;10.04;100.00
49194;BME280;35029;50.804;12.866;2023-05-02T03:03:13;97674.97;;;10.02;100.00
49194;BME280;35029;50.804;12.866;2023-05-02T03:05:41;97684.94;;;10.00;100.00
49194;BME280;35029;50.804;12.866;2023-05-02T03:08:07;97688.03;;;10.04;100.00
49194;BME280;35029;50.804;12.866;2023-05-02T03:10:32;97681.47;;;10.00;100.00
49194;BME280;35029;50.804;12.866;2023-05-02T03:12:58;97693.69;;;10.01;100.00
49194;BME280;35029;50.804;12.866;2023-05-02T03:18:14;97691.38;;;9.91;100.00
49194;BME280;35029;50.804;12.866;2023-05-02T03:20:40;97678.03;;;9.77;100.00
49194;BME280;35029;50.804;12.866;2023-05-02T03:23:06;97690.47;;;9.77;100.00
49194;BME280;35029;50.804;12.866;2023-05-02T03:25:32;97700.44;;;9.75;100.00
49194;BME280;35029;50.804;12.866;2023-05-02T03:27:57;97699.06;;;9.79;100.00
49194;BME280;35029;50.804;12.866;2023-05-02T03:30:23;97705.97;;;9.80;100.00
49194;BME280;35029;50.804;12.866;2023-05-02T03:32:49;97682.03;;;9.67;100.00
49194;BME280;35029;50.804;12.866;2023-05-02T03:35:15;97709.81;;;9.77;100.00
49194;BME280;35029;50.804;12.866;2023-05-02T03:37:44;97711.91;;;9.82;100.00
49194;BME280;35029;50.804;12.866;2023-05-02T03:40:10;97704.97;;;9.81;100.00
49194;BME280;35029;50.804;12.866;2023-05-02T03:42:37;97695.91;;;9.69;100.00
49194;BME280;35029;50.804;12.866;2023-05-02T03:45:07;97701.78;;;9.64;100.00
49194;BME280;35029;50.804;12.866;2023-05-02T03:47:33;97712.97;;;9.66;100.00
49194;BME280;35029;50.804;12.866;2023-05-02T03:49:59;97702.13;;;9.61;100.00
49194;BME280;35029;50.804;12.866;2023-05-02T03:52:29;97720.38;;;9.71;100.00
49194;BME280;35029;50.804;12.866;2023-05-02T03:54:54;97692.56;;;9.60;100.00
49194;BME280;35029;50.804;12.866;2023-05-02T03:57:20;97726.47;;;9.71;100.00
49194;BME280;35029;50.804;12.866;2023-05-02T03:59:46;97732.00;;;9.76;100.00
49194;BME280;35029;50.804;12.866;2023-05-02T04:02:20;97735.84;;;9.74;100.00
49194;BME280;35029;50.804;12.866;2023-05-02T04:04:48;97742.28;;;9.64;100.00
49194;BME280;35029;50.804;12.866;2023-05-02T04:07:16;97742.16;;;9.73;100.00
49194;BME280;35029;50.804;12.866;2023-05-02T04:09:55;97741.69;;;9.69;100.00
49194;BME280;35029;50.804;12.866;2023-05-02T04:12:21;97750.81;;;9.88;100.00
49194;BME280;35029;50.804;12.866;2023-05-02T04:14:49;97749.38;;;9.86;100.00
49194;BME280;35029;50.804;12.866;2023-05-02T04:17:15;97749.81;;;9.89;99.05
49194;BME280;35029;50.804;12.866;2023-05-02T04:19:44;97752.66;;;9.88;99.22
49194;BME280;35029;50.804;12.866;2023-05-02T04:22:11;97764.31;;;9.93;100.00
49194;BME280;35029;50.804;12.866;2023-05-02T04:24:42;97765.38;;;9.99;100.00
49194;BME280;35029;50.804;12.866;2023-05-02T04:27:08;97770.25;;;9.95;99.70
49194;BME280;35029;50.804;12.866;2023-05-02T04:29:34;97780.47;;;9.98;99.46
49194;BME280;35029;50.804;12.866;2023-05-02T04:32:02;97768.28;;;9.82;99.99
49194;BME280;35029;50.804;12.866;2023-05-02T04:34:29;97774.78;;;10.02;100.00
49194;BME280;35029;50.804;12.866;2023-05-02T04:36:55;97781.72;;;10.03;99.68
49194;BME280;35029;50.804;12.866;2023-05-02T04:39:22;97773.13;;;10.01;99.42
49194;BME280;35029;50.804;12.866;2023-05-02T04:41:57;97777.56;;;9.93;99.22
49194;BME280;35029;50.804;12.866;2023-05-02T04:44:25;97783.38;;;10.04;99.11
49194;BME280;35029;50.804;12.866;2023-05-02T04:46:52;97783.97;;;10.06;98.96
49194;BME280;35029;50.804;12.866;2023-05-02T04:49:17;97796.47;;;10.12;98.10
49194;BME280;35029;50.804;12.866;2023-05-02T04:51:43;97792.44;;;10.16;98.42
49194;BME280;35029;50.804;12.866;2023-05-02T04:54:10;97797.94;;;10.14;98.29
49194;BME280;35029;50.804;12.866;2023-05-02T04:56:36;97804.28;;;10.20;98.02
49194;BME280;35029;50.804;12.866;2023-05-02T04:59:02;97798.13;;;10.13;96.61
49194;BME280;35029;50.804;12.866;2023-05-02T05:01:30;97820.38;;;10.19;98.32
49194;BME280;35029;50.804;12.866;2023-05-02T05:03:56;97799.44;;;10.02;98.82
49194;BME280;35029;50.804;12.866;2023-05-02T05:06:21;97819.91;;;10.15;97.97
49194;BME280;35029;50.804;12.866;2023-05-02T05:08:47;97835.44;;;10.18;98.23
49194;BME280;35029;50.804;12.866;2023-05-02T05:11:14;97833.97;;;10.15;99.08
49194;BME280;35029;50.804;12.866;2023-05-02T05:13:41;97837.13;;;10.26;98.28
49194;BME280;35029;50.804;12.866;2023-05-02T05:16:08;97843.00;;;10.43;100.00
49194;BME280;35029;50.804;12.866;2023-05-02T05:18:34;97851.31;;;10.61;98.84
49194;BME280;35029;50.804;12.866;2023-05-02T05:21:09;97847.78;;;10.54;96.28
49194;BME280;35029;50.804;12.866;2023-05-02T05:23:36;97854.09;;;10.53;97.02
49194;BME280;35029;50.804;12.866;2023-05-02T05:26:11;97855.94;;;10.53;97.04
49194;BME280;35029;50.804;12.866;2023-05-02T05:28:39;97854.00;;;10.40;96.09
49194;BME280;35029;50.804;12.866;2023-05-02T05:31:12;97857.38;;;10.55;96.26
49194;BME280;35029;50.804;12.866;2023-05-02T05:33:41;97868.59;;;10.57;96.51
49194;BME280;35029;50.804;12.866;2023-05-02T05:36:12;97870.25;;;10.58;96.82
49194;BME280;35029;50.804;12.866;2023-05-02T05:38:41;97867.84;;;10.63;96.81
49194;BME280;35029;50.804;12.866;2023-05-02T05:41:08;97868.59;;;10.57;96.08
49194;BME280;35029;50.804;12.866;2023-05-02T05:43:38;97863.25;;;10.51;94.97
49194;BME280;35029;50.804;12.866;2023-05-02T05:46:03;97864.50;;;10.55;95.72
49194;BME280;35029;50.804;12.866;2023-05-02T05:48:31;97876.84;;;10.69;94.91
49194;BME280;35029;50.804;12.866;2023-05-02T05:51:02;97876.03;;;10.69;95.88
49194;BME280;35029;50.804;12.866;2023-05-02T05:53:29;97886.22;;;10.65;94.91
49194;BME280;35029;50.804;12.866;2023-05-02T05:55:55;97894.81;;;10.74;94.81
49194;BME280;35029;50.804;12.866;2023-05-02T05:58:22;97889.78;;;10.79;94.80
49194;BME280;35029;50.804;12.866;2023-05-02T06:00:49;97894.13;;;10.93;95.04
49194;BME280;35029;50.804;12.866;2023-05-02T06:03:15;97897.47;;;11.02;94.76
49194;BME280;35029;50.804;12.866;2023-05-02T06:05:41;97904.69;;;11.15;93.51
49194;BME280;35029;50.804;12.866;2023-05-02T06:08:07;97893.47;;;11.13;92.45
49194;BME280;35029;50.804;12.866;2023-05-02T06:10:33;97906.94;;;11.11;92.48
49194;BME280;35029;50.804;12.866;2023-05-02T06:12:58;97911.47;;;11.24;92.83
49194;BME280;35029;50.804;12.866;2023-05-02T06:15:29;97888.94;;;11.07;92.04
49194;BME280;35029;50.804;12.866;2023-05-02T06:17:57;97912.50;;;11.23;92.93
49194;BME280;35029;50.804;12.866;2023-05-02T06:20:22;97918.44;;;11.25;92.82
49194;BME280;35029;50.804;12.866;2023-05-02T06:22:48;97926.34;;;11.19;91.84
49194;BME280;35029;50.804;12.866;2023-05-02T06:25:14;97921.28;;;11.24;92.13
49194;BME280;35029;50.804;12.866;2023-05-02T06:27:39;97921.09;;;11.25;92.26
49194;BME280;35029;50.804;12.866;2023-05-02T06:30:05;97937.56;;;11.21;91.87
49194;BME280;35029;50.804;12.866;2023-05-02T06:32:31;97945.94;;;11.18;91.71
49194;BME280;35029;50.804;12.866;2023-05-02T06:34:57;97947.38;;;11.20;92.74
49194;BME280;35029;50.804;12.866;2023-05-02T06:37:22;97952.69;;;11.20;92.00
49194;BME280;35029;50.804;12.866;2023-05-02T06:39:48;97940.94;;;11.01;92.08
49194;BME280;35029;50.804;12.866;2023-05-02T06:42:14;97931.91;;;10.95;93.90
49194;BME280;35029;50.804;12.866;2023-05-02T06:44:40;97957.69;;;11.08;93.46
49194;BME280;35029;50.804;12.866;2023-05-02T06:47:06;97968.16;;;11.16;93.37
49194;BME280;35029;50.804;12.866;2023-05-02T06:49:32;97975.31;;;11.16;93.62
49194;BME280;35029;50.804;12.866;2023-05-02T06:51:57;97974.25;;;11.10;94.22
49194;BME280;35029;50.804;12.866;2023-05-02T06:54:24;97979.13;;;11.07;94.86
49194;BME280;35029;50.804;12.866;2023-05-02T06:56:50;97987.09;;;11.07;94.66
49194;BME280;35029;50.804;12.866;2023-05-02T06:59:16;97984.75;;;10.97;96.59
49194;BME280;35029;50.804;12.866;2023-05-02T07:01:45;97985.97;;;10.94;96.38
49194;BME280;35029;50.804;12.866;2023-05-02T07:04:10;98000.28;;;11.00;97.40
49194;BME280;35029;50.804;12.866;2023-05-02T07:06:36;97995.31;;;10.90;100.00
49194;BME280;35029;50.804;12.866;2023-05-02T07:09:02;98006.72;;;10.84;100.00
49194;BME280;35029;50.804;12.866;2023-05-02T07:11:28;97997.84;;;10.77;100.00
49194;BME280;35029;50.804;12.866;2023-05-02T07:13:54;98007.84;;;10.75;100.00
49194;BME280;35029;50.804;12.866;2023-05-02T07:16:19;98008.38;;;10.70;100.00
49194;BME280;35029;50.804;12.866;2023-05-02T07:18:45;98010.22;;;10.70;100.00
49194;BME280;35029;50.804;12.866;2023-05-02T07:21:11;98017.78;;;10.73;100.00
49194;BME280;35029;50.804;12.866;2023-05-02T07:23:37;98017.19;;;10.71;100.00
49194;BME280;35029;50.804;12.866;2023-05-02T07:26:03;98025.13;;;10.71;100.00
49194;BME280;35029;50.804;12.866;2023-05-02T07:28:32;98017.19;;;10.71;100.00
49194;BME280;35029;50.804;12.866;2023-05-02T07:30:57;98023.75;;;10.75;100.00
49194;BME280;35029;50.804;12.866;2023-05-02T07:33:23;98029.19;;;10.67;100.00
49194;BME280;35029;50.804;12.866;2023-05-02T07:35:49;98025.75;;;10.73;100.00
49194;BME280;35029;50.804;12.866;2023-05-02T07:38:15;98029.06;;;10.75;100.00
49194;BME280;35029;50.804;12.866;2023-05-02T07:40:40;98034.34;;;10.75;100.00
49194;BME280;35029;50.804;12.866;2023-05-02T07:43:06;98045.03;;;10.81;100.00
49194;BME280;35029;50.804;12.866;2023-05-02T07:45:31;98044.03;;;10.82;100.00
49194;BME280;35029;50.804;12.866;2023-05-02T07:47:58;98042.56;;;10.80;100.00
49194;BME280;35029;50.804;12.866;2023-05-02T07:50:23;98047.69;;;10.81;100.00
49194;BME280;35029;50.804;12.866;2023-05-02T07:52:49;98055.81;;;10.80;100.00
49194;BME280;35029;50.804;12.866;2023-05-02T07:55:15;98056.84;;;10.79;100.00
49194;BME280;35029;50.804;12.866;2023-05-02T07:57:40;98046.78;;;10.74;100.00
49194;BME280;35029;50.804;12.866;2023-05-02T08:00:07;98042.94;;;10.77;100.00
49194;BME280;35029;50.804;12.866;2023-05-02T08:02:38;98073.22;;;10.89;100.00
49194;BME280;35029;50.804;12.866;2023-05-02T08:05:04;98073.63;;;10.86;100.00
49194;BME280;35029;50.804;12.866;2023-05-02T08:07:31;98064.72;;;10.94;100.00
49194;BME280;35029;50.804;12.866;2023-05-02T08:09:56;98073.00;;;11.06;100.00
49194;BME280;35029;50.804;12.866;2023-05-02T08:12:22;98073.09;;;11.19;100.00
49194;BME280;35029;50.804;12.866;2023-05-02T08:14:47;98081.38;;;11.31;100.00
49194;BME280;35029;50.804;12.866;2023-05-02T08:17:13;98084.75;;;11.46;100.00
49194;BME280;35029;50.804;12.866;2023-05-02T08:19:39;98084.44;;;11.56;100.00
49194;BME280;35029;50.804;12.866;2023-05-02T08:22:05;98094.28;;;11.62;100.00
49194;BME280;35029;50.804;12.866;2023-05-02T08:24:30;98095.81;;;11.50;100.00
49194;BME280;35029;50.804;12.866;2023-05-02T08:26:56;98086.44;;;11.26;100.00
49194;BME280;35029;50.804;12.866;2023-05-02T08:29:22;98110.38;;;11.32;100.00
49194;BME280;35029;50.804;12.866;2023-05-02T08:31:48;98110.25;;;11.19;100.00
49194;BME280;35029;50.804;12.866;2023-05-02T08:34:15;98108.38;;;11.35;100.00
49194;BME280;35029;50.804;12.866;2023-05-02T08:36:40;98122.56;;;11.48;100.00
49194;BME280;35029;50.804;12.866;2023-05-02T08:39:06;98115.22;;;11.50;100.00
49194;BME280;35029;50.804;12.866;2023-05-02T08:41:34;98125.28;;;11.55;100.00
49194;BME280;35029;50.804;12.866;2023-05-02T08:44:01;98127.97;;;11.62;100.00
49194;BME280;35029;50.804;12.866;2023-05-02T08:46:27;98120.88;;;11.69;100.00
49194;BME280;35029;50.804;12.866;2023-05-02T08:48:54;98130.34;;;11.78;100.00
49194;BME280;35029;50.804;12.866;2023-05-02T08:51:23;98099.19;;;11.65;98.89
49194;BME280;35029;50.804;12.866;2023-05-02T08:53:49;98117.25;;;11.77;97.44
49194;BME280;35029;50.804;12.866;2023-05-02T08:56:16;98129.59;;;11.91;97.13
49194;BME280;35029;50.804;12.866;2023-05-02T08:58:41;98132.00;;;11.86;94.75
49194;BME280;35029;50.804;12.866;2023-05-02T09:01:18;98140.50;;;11.96;95.97
49194;BME280;35029;50.804;12.866;2023-05-02T09:03:47;98137.44;;;11.99;95.74
49194;BME280;35029;50.804;12.866;2023-05-02T09:06:17;98126.34;;;11.89;96.05
49194;BME280;35029;50.804;12.866;2023-05-02T09:08:45;98148.97;;;12.07;95.97
49194;BME280;35029;50.804;12.866;2023-05-02T09:11:13;98141.81;;;12.07;95.32
49194;BME280;35029;50.804;12.866;2023-05-02T09:13:44;98148.66;;;11.95;94.31
49194;BME280;35029;50.804;12.866;2023-05-02T09:16:19;98138.97;;;11.87;96.46
49194;BME280;35029;50.804;12.866;2023-05-02T09:18:48;98153.78;;;11.96;96.79
49194;BME280;35029;50.804;12.866;2023-05-02T09:21:19;98149.25;;;11.90;96.84
49194;BME280;35029;50.804;12.866;2023-05-02T09:23:56;98146.94;;;11.87;96.91
49194;BME280;35029;50.804;12.866;2023-05-02T09:26:26;98147.53;;;11.82;94.66
49194;BME280;35029;50.804;12.866;2023-05-02T09:29:03;98154.31;;;11.85;96.72
49194;BME280;35029;50.804;12.866;2023-05-02T09:31:34;98161.69;;;11.90;96.92
49194;BME280;35029;50.804;12.866;2023-05-02T09:34:12;98158.63;;;11.93;97.00
49194;BME280;35029;50.804;12.866;2023-05-02T09:36:42;98166.53;;;11.86;95.47
49194;BME280;35029;50.804;12.866;2023-05-02T09:39:09;98163.47;;;11.82;96.11
49194;BME280;35029;50.804;12.866;2023-05-02T09:41:53;98127.97;;;11.62;94.92
49194;BME280;35029;50.804;12.866;2023-05-02T09:44:21;98164.94;;;11.85;94.45
49194;BME280;35029;50.804;12.866;2023-05-02T09:46:49;98167.19;;;11.88;94.58
49194;BME280;35029;50.804;12.866;2023-05-02T09:49:15;98177.75;;;11.81;94.35
49194;BME280;35029;50.804;12.866;2023-05-02T09:51:48;98173.25;;;11.82;94.79
49194;BME280;35029;50.804;12.866;2023-05-02T09:54:35;98169.34;;;11.99;94.68
49194;BME280;35029;50.804;12.866;2023-05-02T09:57:01;98181.50;;;12.15;92.78
49194;BME280;35029;50.804;12.866;2023-05-02T09:59:26;98173.41;;;12.30;91.20
49194;BME280;35029;50.804;12.866;2023-05-02T10:01:56;98170.00;;;12.37;89.18
49194;BME280;35029;50.804;12.866;2023-05-02T10:04:23;98155.00;;;12.29;86.73
49194;BME280;35029;50.804;12.866;2023-05-02T10:06:50;98180.91;;;12.55;89.01
49194;BME280;35029;50.804;12.866;2023-05-02T10:09:18;98188.16;;;12.68;87.62
49194;BME280;35029;50.804;12.866;2023-05-02T10:11:44;98185.44;;;12.61;87.46
49194;BME280;35029;50.804;12.866;2023-05-02T10:14:11;98171.81;;;12.78;88.60
49194;BME280;35029;50.804;12.866;2023-05-02T10:16:56;98188.41;;;12.87;85.09
49194;BME280;35029;50.804;12.866;2023-05-02T10:19:32;98177.75;;;12.87;85.38
49194;BME280;35029;50.804;12.866;2023-05-02T10:22:02;98194.84;;;13.12;84.66
49194;BME280;35029;50.804;12.866;2023-05-02T10:24:31;98180.72;;;13.12;84.98
49194;BME280;35029;50.804;12.866;2023-05-02T10:26:57;98195.31;;;13.29;83.11
49194;BME280;35029;50.804;12.866;2023-05-02T10:29:23;98200.00;;;13.34;83.31
49194;BME280;35029;50.804;12.866;2023-05-02T10:31:49;98188.06;;;13.10;81.83
49194;BME280;35029;50.804;12.866;2023-05-02T10:34:17;98210.78;;;13.06;82.65
49194;BME280;35029;50.804;12.866;2023-05-02T10:36:43;98211.81;;;13.11;84.65
49194;BME280;35029;50.804;12.866;2023-05-02T10:39:08;98208.25;;;12.84;83.25
49194;BME280;35029;50.804;12.866;2023-05-02T10:41:36;98208.28;;;12.91;85.09
49194;BME280;35029;50.804;12.866;2023-05-02T10:44:04;98191.94;;;13.00;85.07
49194;BME280;35029;50.804;12.866;2023-05-02T10:46:34;98199.19;;;13.27;83.88
49194;BME280;35029;50.804;12.866;2023-05-02T10:51:29;98197.97;;;14.43;77.41
49194;BME280;35029;50.804;12.866;2023-05-02T10:59:29;98198.84;;;14.03;77.87
49194;BME280;35029;50.804;12.866;2023-05-02T11:01:55;98183.22;;;14.20;75.41
49194;BME280;35029;50.804;12.866;2023-05-02T11:04:22;98201.50;;;14.30;74.82
49194;BME280;35029;50.804;12.866;2023-05-02T11:11:54;98189.19;;;14.23;73.37
49194;BME280;35029;50.804;12.866;2023-05-02T11:14:41;98187.13;;;14.31;73.68
49194;BME280;35029;50.804;12.866;2023-05-02T11:17:08;98182.19;;;14.42;73.62
49194;BME280;35029;50.804;12.866;2023-05-02T11:22:29;98177.41;;;14.57;70.99
49194;BME280;35029;50.804;12.866;2023-05-02T11:24:55;98161.63;;;14.49;71.30
49194;BME280;35029;50.804;12.866;2023-05-02T11:29:56;98176.59;;;14.57;70.59
49194;BME280;35029;50.804;12.866;2023-05-02T11:32:22;98175.16;;;14.54;69.28
49194;BME280;35029;50.804;12.866;2023-05-02T11:34:50;98180.31;;;14.49;70.84
49194;BME280;35029;50.804;12.866;2023-05-02T11:37:18;98179.72;;;14.40;69.21
49194;BME280;35029;50.804;12.866;2023-05-02T11:39:44;98184.06;;;14.28;69.79
49194;BME280;35029;50.804;12.866;2023-05-02T11:42:28;98194.94;;;14.33;70.57
49194;BME280;35029;50.804;12.866;2023-05-02T11:44:58;98187.72;;;14.40;71.50
49194;BME280;35029;50.804;12.866;2023-05-02T11:47:25;98182.63;;;14.25;71.28
49194;BME280;35029;50.804;12.866;2023-05-02T11:49:54;98188.56;;;14.27;70.47
49194;BME280;35029;50.804;12.866;2023-05-02T11:52:22;98185.50;;;14.30;72.49
49194;BME280;35029;50.804;12.866;2023-05-02T11:54:48;98187.13;;;14.25;69.73
49194;BME280;35029;50.804;12.866;2023-05-02T11:57:14;98184.97;;;14.74;69.09
49194;BME280;35029;50.804;12.866;2023-05-02T11:59:51;98179.75;;;15.31;68.12
49194;BME280;35029;50.804;12.866;2023-05-02T12:02:17;98187.56;;;15.32;69.29
49194;BME280;35029;50.804;12.866;2023-05-02T12:04:43;98194.47;;;15.15;65.89
49194;BME280;35029;50.804;12.866;2023-05-02T12:07:09;98171.03;;;15.74;65.28
49194;BME280;35029;50.804;12.866;2023-05-02T12:09:34;98188.19;;;16.35;61.64
49194;BME280;35029;50.804;12.866;2023-05-02T12:12:00;98186.78;;;16.51;62.21
49194;BME280;35029;50.804;12.866;2023-05-02T12:14:29;98182.91;;;16.10;62.66
49194;BME280;35029;50.804;12.866;2023-05-02T12:16:58;98169.19;;;15.17;62.46
49194;BME280;35029;50.804;12.866;2023-05-02T12:19:24;98183.47;;;15.30;65.28
49194;BME280;35029;50.804;12.866;2023-05-02T12:21:50;98169.06;;;14.99;66.58
49194;BME280;35029;50.804;12.866;2023-05-02T12:24:17;98180.91;;;14.58;67.29
49194;BME280;35029;50.804;12.866;2023-05-02T12:26:43;98185.88;;;14.41;68.49
49194;BME280;35029;50.804;12.866;2023-05-02T12:29:08;98192.84;;;14.48;70.12
49194;BME280;35029;50.804;12.866;2023-05-02T12:31:34;98196.53;;;14.34;69.23
49194;BME280;35029;50.804;12.866;2023-05-02T12:33:59;98191.81;;;14.49;69.55
49194;BME280;35029;50.804;12.866;2023-05-02T12:36:26;98195.28;;;14.63;71.13
49194;BME280;35029;50.804;12.866;2023-05-02T12:38:57;98201.97;;;14.86;69.82
49194;BME280;35029;50.804;12.866;2023-05-02T12:41:33;98202.59;;;15.59;67.54
49194;BME280;35029;50.804;12.866;2023-05-02T12:44:00;98194.50;;;15.72;65.44
49194;BME280;35029;50.804;12.866;2023-05-02T12:46:25;98188.31;;;16.03;64.21
49194;BME280;35029;50.804;12.866;2023-05-02T12:49:02;98184.94;;;16.33;60.22
49194;BME280;35029;50.804;12.866;2023-05-02T12:51:29;98180.31;;;16.96;59.38
49194;BME280;35029;50.804;12.866;2023-05-02T12:53:56;98172.41;;;17.01;57.51
49194;BME280;35029;50.804;12.866;2023-05-02T12:56:21;98162.97;;;17.29;58.13
49194;BME280;35029;50.804;12.866;2023-05-02T12:58:48;98162.56;;;17.56;55.47
49194;BME280;35029;50.804;12.866;2023-05-02T13:01:15;98173.19;;;17.74;56.79
49194;BME280;35029;50.804;12.866;2023-05-02T13:03:42;98162.75;;;17.97;55.87
49194;BME280;35029;50.804;12.866;2023-05-02T13:06:08;98182.22;;;18.28;55.09
49194;BME280;35029;50.804;12.866;2023-05-02T13:08:34;98175.34;;;18.32;51.22
49194;BME280;35029;50.804;12.866;2023-05-02T13:11:03;98182.22;;;17.92;54.62
49194;BME280;35029;50.804;12.866;2023-05-02T13:13:29;98171.50;;;17.08;53.86
49194;BME280;35029;50.804;12.866;2023-05-02T13:15:55;98168.78;;;16.77;54.62
49194;BME280;35029;50.804;12.866;2023-05-02T13:18:21;98190.44;;;16.76;55.93
49194;BME280;35029;50.804;12.866;2023-05-02T13:20:46;98184.47;;;16.55;58.91